sensor_id;sensor_type;location;lat;lon;timestamp;temperature;humidity
17007;DHT22;8620;51.168;4.154;2023-02-18T07:35:05;11.00;99.90
17007;DHT22;8620;51.168;4.154;2023-02-18T07:37:39;11.10;99.90
17007;DHT22;8620;51.168;4.154;2023-02-18T07:40:25;11.10;99.90
17007;DHT22;8620;51.168;4.154;2023-02-18T07:43:27;11.10;99.90
17007;DHT22;8620;51.168;4.154;2023-02-18T07:46:11;11.20;99.90
17007;DHT22;8620;51.168;4.154;2023-02-18T07:49:40;11.10;99.90
17007;DHT22;8620;51.168;4.154;2023-02-18T07:52:25;11.10;99.90
17007;DHT22;8620;51.168;4.154;2023-02-18T07:55:26;11.10;99.90
17007;DHT22;8620;51.168;4.154;2023-02-18T07:58:51;11.10;99.90
17007;DHT22;8620;51.168;4.154;2023-02-18T08:01:44;11.10;99.90
17007;DHT22;8620;51.168;4.154;2023-02-18T08:04:46;11.20;99.90
17007;DHT22;8620;51.168;4.154;2023-02-18T08:07:32;11.20;99.90
17007;DHT22;8620;51.168;4.154;2023-02-18T08:10:36;11.10;99.90
17007;DHT22;8620;51.168;4.154;2023-02-18T08:13:48;11.30;99.90
17007;DHT22;8620;51.168;4.154;2023-02-18T08:16:34;11.10;99.90
17007;DHT22;8620;51.168;4.154;2023-02-18T08:19:37;11.10;99.90
17007;DHT22;8620;51.168;4.154;2023-02-18T08:22:29;11.20;99.90
17007;DHT22;8620;51.168;4.154;2023-02-18T08:28:54;11.20;99.90
17007;DHT22;8620;51.168;4.154;2023-02-18T08:34:26;11.20;99.90
17007;DHT22;8620;51.168;4.154;2023-02-18T08:37:15;11.40;99.90
17007;DHT22;8620;51.168;4.154;2023-02-18T08:40:13;11.40;99.90
17007;DHT22;8620;51.168;4.154;2023-02-18T08:43:08;11.30;99.90
17007;DHT22;8620;51.168;4.154;2023-02-18T08:45:46;11.50;99.90
17007;DHT22;8620;51.168;4.154;2023-02-18T08:48:34;11.40;99.90
17007;DHT22;8620;51.168;4.154;2023-02-18T08:51:22;11.30;99.90
17007;DHT22;8620;51.168;4.154;2023-02-18T08:54:08;11.50;99.90
17007;DHT22;8620;51.168;4.154;2023-02-18T08:56:59;11.50;99.90
17007;DHT22;8620;51.168;4.154;2023-02-18T09:00:02;11.50;99.90
17007;DHT22;8620;51.168;4.154;2023-02-18T09:02:31;11.50;99.90
17007;DHT22;8620;51.168;4.154;2023-02-18T09:05:32;11.50;99.90
17007;DHT22;8620;51.168;4.154;2023-02-18T09:08:33;11.80;99.90
17007;DHT22;8620;51.168;4.154;2023-02-18T09:11:20;11.60;99.90
17007;DHT22;8620;51.168;4.154;2023-02-18T09:14:15;11.60;99.90
17007;DHT22;8620;51.168;4.154;2023-02-18T09:16:43;11.70;99.90
17007;DHT22;8620;51.168;4.154;2023-02-18T09:19:31;11.70;99.90
17007;DHT22;8620;51.168;4.154;2023-02-18T09:22:15;11.60;99.90
17007;DHT22;8620;51.168;4.154;2023-02-18T09:25:16;11.60;99.90
17007;DHT22;8620;51.168;4.154;2023-02-18T09:28:24;11.60;99.90
17007;DHT22;8620;51.168;4.154;2023-02-18T09:31:31;11.60;99.90
17007;DHT22;8620;51.168;4.154;2023-02-18T09:37:58;11.50;99.90
17007;DHT22;8620;51.168;4.154;2023-02-18T09:40:37;11.60;99.90
17007;DHT22;8620;51.168;4.154;2023-02-18T09:46:36;11.60;99.90
17007;DHT22;8620;51.168;4.154;2023-02-18T09:49:43;11.60;99.90
17007;DHT22;8620;51.168;4.154;2023-02-18T09:52:23;11.70;99.90
17007;DHT22;8620;51.168;4.154;2023-02-18T09:55:01;11.80;99.90
17007;DHT22;8620;51.168;4.154;2023-02-18T10:01:05;11.80;99.90
17007;DHT22;8620;51.168;4.154;2023-02-18T10:04:19;11.80;99.90
17007;DHT22;8620;51.168;4.154;2023-02-18T10:07:38;11.80;99.90
17007;DHT22;8620;51.168;4.154;2023-02-18T10:13:40;11.90;99.90
17007;DHT22;8620;51.168;4.154;2023-02-18T10:20:20;11.80;99.90
17007;DHT22;8620;51.168;4.154;2023-02-18T10:36:38;11.80;99.90
17007;DHT22;8620;51.168;4.154;2023-02-18T10:49:07;11.90;99.90
17007;DHT22;8620;51.168;4.154;2023-02-18T10:51:55;12.00;99.90
17007;DHT22;8620;51.168;4.154;2023-02-18T10:58:23;12.10;99.90
17007;DHT22;8620;51.168;4.154;2023-02-18T11:01:24;12.10;99.90
17007;DHT22;8620;51.168;4.154;2023-02-18T11:04:11;12.10;99.90
17007;DHT22;8620;51.168;4.154;2023-02-18T11:07:03;12.10;99.90
17007;DHT22;8620;51.168;4.154;2023-02-18T11:20:22;12.20;99.90
17007;DHT22;8620;51.168;4.154;2023-02-18T11:34:53;12.50;99.90
17007;DHT22;8620;51.168;4.154;2023-02-18T11:37:41;12.30;99.90
17007;DHT22;8620;51.168;4.154;2023-02-18T11:43:58;12.30;99.90
17007;DHT22;8620;51.168;4.154;2023-02-18T11:47:02;12.40;99.90
17007;DHT22;8620;51.168;4.154;2023-02-18T11:52:59;12.20;99.90
17007;DHT22;8620;51.168;4.154;2023-02-18T11:56:23;12.40;99.90
17007;DHT22;8620;51.168;4.154;2023-02-18T11:59:16;12.40;99.90
17007;DHT22;8620;51.168;4.154;2023-02-18T12:02:39;12.40;99.90
17007;DHT22;8620;51.168;4.154;2023-02-18T12:05:53;12.40;99.90
17007;DHT22;8620;51.168;4.154;2023-02-18T12:08:50;12.50;99.90
17007;DHT22;8620;51.168;4.154;2023-02-18T12:11:59;12.60;99.90
17007;DHT22;8620;51.168;4.154;2023-02-18T12:14:59;12.40;99.90
17007;DHT22;8620;51.168;4.154;2023-02-18T12:23:35;12.30;99.90
17007;DHT22;8620;51.168;4.154;2023-02-18T12:30:18;12.60;99.90
17007;DHT22;8620;51.168;4.154;2023-02-18T12:49:21;12.50;99.90
17007;DHT22;8620;51.168;4.154;2023-02-18T12:52:32;12.50;99.90
17007;DHT22;8620;51.168;4.154;2023-02-18T13:14:52;12.50;99.90
17007;DHT22;8620;51.168;4.154;2023-02-18T13:17:43;12.50;99.90
17007;DHT22;8620;51.168;4.154;2023-02-18T13:27:34;12.70;99.90
17007;DHT22;8620;51.168;4.154;2023-02-18T13:30:30;12.80;99.90
17007;DHT22;8620;51.168;4.154;2023-02-18T13:38:47;12.80;99.90
17007;DHT22;8620;51.168;4.154;2023-02-18T13:41:32;13.00;99.90
17007;DHT22;8620;51.168;4.154;2023-02-18T13:47:11;13.00;99.90
17007;DHT22;8620;51.168;4.154;2023-02-18T13:56:01;12.80;99.90
17007;DHT22;8620;51.168;4.154;2023-02-18T14:04:46;12.80;99.90
17007;DHT22;8620;51.168;4.154;2023-02-18T14:13:45;12.80;99.90
17007;DHT22;8620;51.168;4.154;2023-02-18T14:19:46;12.70;99.90
17007;DHT22;8620;51.168;4.154;2023-02-18T14:51:58;12.50;99.90
17007;DHT22;8620;51.168;4.154;2023-02-18T14:54:42;12.40;99.90
17007;DHT22;8620;51.168;4.154;2023-02-18T14:57:38;12.30;99.90
17007;DHT22;8620;51.168;4.154;2023-02-18T15:00:39;12.30;99.90
17007;DHT22;8620;51.168;4.154;2023-02-18T15:06:40;12.30;99.90
17007;DHT22;8620;51.168;4.154;2023-02-18T15:09:30;12.30;99.90
17007;DHT22;8620;51.168;4.154;2023-02-18T15:12:40;12.30;99.90
17007;DHT22;8620;51.168;4.154;2023-02-18T15:15:24;12.40;99.90
17007;DHT22;8620;51.168;4.154;2023-02-18T15:18:17;12.40;99.90
17007;DHT22;8620;51.168;4.154;2023-02-18T15:20:51;12.40;99.90
17007;DHT22;8620;51.168;4.154;2023-02-18T15:23:38;12.40;99.90
17007;DHT22;8620;51.168;4.154;2023-02-18T15:26:12;12.30;99.90
17007;DHT22;8620;51.168;4.154;2023-02-18T15:29:23;12.40;99.90
17007;DHT22;8620;51.168;4.154;2023-02-18T15:31:57;12.40;99.90
17007;DHT22;8620;51.168;4.154;2023-02-18T15:34:54;12.30;99.90
17007;DHT22;8620;51.168;4.154;2023-02-18T15:38:01;12.40;99.90
17007;DHT22;8620;51.168;4.154;2023-02-18T15:40:38;12.40;99.90
17007;DHT22;8620;51.168;4.154;2023-02-18T15:43:25;12.40;99.90
17007;DHT22;8620;51.168;4.154;2023-02-18T15:48:44;12.20;99.90
17007;DHT22;8620;51.168;4.154;2023-02-18T15:51:14;12.20;99.90
17007;DHT22;8620;51.168;4.154;2023-02-18T15:53:49;12.10;99.90
17007;DHT22;8620;51.168;4.154;2023-02-18T15:56:28;12.30;99.90
17007;DHT22;8620;51.168;4.154;2023-02-18T16:04:49;12.30;99.90
17007;DHT22;8620;51.168;4.154;2023-02-18T16:07:25;12.20;99.90
17007;DHT22;8620;51.168;4.154;2023-02-18T16:10:18;12.20;99.90
17007;DHT22;8620;51.168;4.154;2023-02-18T16:12:51;12.20;99.90
17007;DHT22;8620;51.168;4.154;2023-02-18T16:15:47;12.30;99.90
17007;DHT22;8620;51.168;4.154;2023-02-18T16:18:36;12.10;99.90
17007;DHT22;8620;51.168;4.154;2023-02-18T16:24:16;12.20;99.90
17007;DHT22;8620;51.168;4.154;2023-02-18T16:27:15;12.10;99.90
17007;DHT22;8620;51.168;4.154;2023-02-18T16:29:49;12.10;99.90
17007;DHT22;8620;51.168;4.154;2023-02-18T16:32:23;12.20;99.90
17007;DHT22;8620;51.168;4.154;2023-02-18T16:34:54;12.00;99.90
17007;DHT22;8620;51.168;4.154;2023-02-18T16:37:51;12.00;99.90
17007;DHT22;8620;51.168;4.154;2023-02-18T16:43:33;12.00;99.90
17007;DHT22;8620;51.168;4.154;2023-02-18T16:46:33;11.90;99.90
17007;DHT22;8620;51.168;4.154;2023-02-18T16:49:49;12.00;99.90
17007;DHT22;8620;51.168;4.154;2023-02-18T16:52:21;12.00;99.90
17007;DHT22;8620;51.168;4.154;2023-02-18T16:54:47;12.10;99.90
17007;DHT22;8620;51.168;4.154;2023-02-18T17:00:44;12.00;99.90
17007;DHT22;8620;51.168;4.154;2023-02-18T17:03:13;11.90;99.90
17007;DHT22;8620;51.168;4.154;2023-02-18T17:05:47;11.90;99.90
17007;DHT22;8620;51.168;4.154;2023-02-18T17:08:24;11.90;99.90
17007;DHT22;8620;51.168;4.154;2023-02-18T17:11:16;11.90;99.90
17007;DHT22;8620;51.168;4.154;2023-02-18T17:13:50;12.00;99.90
17007;DHT22;8620;51.168;4.154;2023-02-18T17:16:37;12.10;99.90
17007;DHT22;8620;51.168;4.154;2023-02-18T17:19:12;11.90;99.90
17007;DHT22;8620;51.168;4.154;2023-02-18T17:21:42;11.80;99.90
17007;DHT22;8620;51.168;4.154;2023-02-18T17:24:15;11.80;99.90
17007;DHT22;8620;51.168;4.154;2023-02-18T17:26:47;11.70;99.90
17007;DHT22;8620;51.168;4.154;2023-02-18T17:32:36;11.80;99.90
17007;DHT22;8620;51.168;4.154;2023-02-18T17:35:02;11.80;99.90
17007;DHT22;8620;51.168;4.154;2023-02-18T17:37:36;11.60;99.90
17007;DHT22;8620;51.168;4.154;2023-02-18T17:40:58;11.70;99.90
17007;DHT22;8620;51.168;4.154;2023-02-18T17:43:59;11.60;99.90
17007;DHT22;8620;51.168;4.154;2023-02-18T17:47:03;11.80;99.90
17007;DHT22;8620;51.168;4.154;2023-02-18T17:53:15;11.70;99.90
17007;DHT22;8620;51.168;4.154;2023-02-18T17:56:09;11.60;99.90
17007;DHT22;8620;51.168;4.154;2023-02-18T18:02:26;11.80;99.90
17007;DHT22;8620;51.168;4.154;2023-02-18T18:05:14;11.90;99.90
17007;DHT22;8620;51.168;4.154;2023-02-18T18:08:04;11.90;99.90
17007;DHT22;8620;51.168;4.154;2023-02-18T18:10:50;11.80;99.90
17007;DHT22;8620;51.168;4.154;2023-02-18T18:13:29;11.70;99.90
17007;DHT22;8620;51.168;4.154;2023-02-18T18:16:17;11.70;99.90
17007;DHT22;8620;51.168;4.154;2023-02-18T18:18:46;11.60;99.90
17007;DHT22;8620;51.168;4.154;2023-02-18T18:21:59;11.80;99.90
17007;DHT22;8620;51.168;4.154;2023-02-18T18:25:04;11.50;99.90
17007;DHT22;8620;51.168;4.154;2023-02-18T18:27:59;11.50;99.90
17007;DHT22;8620;51.168;4.154;2023-02-18T18:30:47;11.40;99.90
17007;DHT22;8620;51.168;4.154;2023-02-18T18:33:43;11.50;99.90
17007;DHT22;8620;51.168;4.154;2023-02-18T18:36:31;11.50;99.90
17007;DHT22;8620;51.168;4.154;2023-02-18T18:39:21;11.60;99.90
17007;DHT22;8620;51.168;4.154;2023-02-18T18:45:21;11.60;99.90
17007;DHT22;8620;51.168;4.154;2023-02-18T18:48:06;11.60;99.90
17007;DHT22;8620;51.168;4.154;2023-02-18T18:51:00;11.70;99.90
17007;DHT22;8620;51.168;4.154;2023-02-18T18:53:44;11.70;99.90
17007;DHT22;8620;51.168;4.154;2023-02-18T18:56:11;11.60;99.90
17007;DHT22;8620;51.168;4.154;2023-02-18T18:58:39;11.60;99.90
17007;DHT22;8620;51.168;4.154;2023-02-18T19:01:18;11.60;99.90
17007;DHT22;8620;51.168;4.154;2023-02-18T19:04:07;11.70;99.90
17007;DHT22;8620;51.168;4.154;2023-02-18T19:06:42;11.70;99.90
17007;DHT22;8620;51.168;4.154;2023-02-18T19:09:11;11.70;99.90
17007;DHT22;8620;51.168;4.154;2023-02-18T19:11:53;11.60;99.90
17007;DHT22;8620;51.168;4.154;2023-02-18T19:14:29;11.60;99.90
17007;DHT22;8620;51.168;4.154;2023-02-18T19:17:16;11.70;99.90
17007;DHT22;8620;51.168;4.154;2023-02-18T19:20:06;11.70;99.90
17007;DHT22;8620;51.168;4.154;2023-02-18T19:22:44;11.60;99.90
17007;DHT22;8620;51.168;4.154;2023-02-18T19:25:19;11.50;99.90
17007;DHT22;8620;51.168;4.154;2023-02-18T19:28:09;11.70;99.90
17007;DHT22;8620;51.168;4.154;2023-02-18T19:31:15;11.60;99.90
17007;DHT22;8620;51.168;4.154;2023-02-18T19:33:43;11.70;99.90
17007;DHT22;8620;51.168;4.154;2023-02-18T19:36:19;11.90;99.90
17007;DHT22;8620;51.168;4.154;2023-02-18T19:46:17;11.50;99.90
17007;DHT22;8620;51.168;4.154;2023-02-18T19:48:52;11.50;99.90
17007;DHT22;8620;51.168;4.154;2023-02-18T19:51:40;11.60;99.90
17007;DHT22;8620;51.168;4.154;2023-02-18T19:54:26;11.70;99.90
17007;DHT22;8620;51.168;4.154;2023-02-18T19:56:52;11.70;99.90
17007;DHT22;8620;51.168;4.154;2023-02-18T20:02:59;11.60;99.90
17007;DHT22;8620;51.168;4.154;2023-02-18T20:05:35;11.50;99.90
17007;DHT22;8620;51.168;4.154;2023-02-18T20:08:16;11.60;99.90
17007;DHT22;8620;51.168;4.154;2023-02-18T20:11:08;11.50;99.90
17007;DHT22;8620;51.168;4.154;2023-02-18T20:13:40;11.40;99.90
17007;DHT22;8620;51.168;4.154;2023-02-18T20:19:46;11.40;99.90
17007;DHT22;8620;51.168;4.154;2023-02-18T20:25:50;11.70;99.90
17007;DHT22;8620;51.168;4.154;2023-02-18T20:28:57;11.80;99.90
17007;DHT22;8620;51.168;4.154;2023-02-18T20:31:23;11.60;99.90
17007;DHT22;8620;51.168;4.154;2023-02-18T20:33:49;11.60;99.90
17007;DHT22;8620;51.168;4.154;2023-02-18T20:36:18;11.60;99.90
17007;DHT22;8620;51.168;4.154;2023-02-18T20:38:48;11.60;99.90
17007;DHT22;8620;51.168;4.154;2023-02-18T20:41:22;11.40;99.90
17007;DHT22;8620;51.168;4.154;2023-02-18T20:43:58;11.50;99.90
17007;DHT22;8620;51.168;4.154;2023-02-18T20:46:28;11.40;99.90
17007;DHT22;8620;51.168;4.154;2023-02-18T20:48:58;11.40;99.90
17007;DHT22;8620;51.168;4.154;2023-02-18T20:51:42;11.30;99.90
17007;DHT22;8620;51.168;4.154;2023-02-18T20:54:23;11.50;99.90
17007;DHT22;8620;51.168;4.154;2023-02-18T20:57:09;11.50;99.90
